Time;durP1;ratioP1;P1;durP2;ratioP2;P2;SDS_P1;SDS_P2;PMS_P1;PMS_P2;Temp;Humidity;BMP_temperature;BMP_pressure;BME280_temperature;BME280_humidity;BME280_pressure;Samples;Min_cycle;Max_cycle;Signal;HPM_P1;HPM_P2
2024/03/13 00:00:29;;;;;;;;;;;;;;;5.87;100.00;96201.56;111477;1249;22509;-85
2024/03/13 00:03:15;;;;;;;;;;;;;;;5.86;100.00;96203.90;111572;1249;22480;-86
2024/03/13 00:05:41;;;;;;;;;;;;;;;5.85;100.00;96207.08;111716;1249;22500;-87
2024/03/13 00:08:07;;;;;;;;;;;;;;;5.84;100.00;96209.06;111559;1249;22910;-86
2024/03/13 00:10:33;;;;;;;;;;;;;;;5.83;100.00;96206.91;111556;1249;22488;-86
2024/03/13 00:12:59;;;;;;;;;;;;;;;5.82;100.00;96203.42;111596;1249;23851;-86
2024/03/13 00:15:25;;;;;;;;;;;;;;;5.82;100.00;96205.88;111530;1249;22481;-85
2024/03/13 00:17:50;;;;;;;;;;;;;;;5.81;100.00;96205.48;111513;1249;23520;-86
2024/03/13 00:20:16;;;;;;;;;;;;;;;5.79;100.00;96207.90;111541;1249;22475;-86
2024/03/13 00:22:44;;;;;;;;;;;;;;;5.76;100.00;96205.60;111469;1249;22479;-86
2024/03/13 00:25:11;;;;;;;;;;;;;;;5.73;100.00;96208.80;111715;1249;22523;-86
2024/03/13 00:27:39;;;;;;;;;;;;;;;5.71;100.00;96209.39;111534;1249;22475;-86
2024/03/13 00:30:05;;;;;;;;;;;;;;;5.68;100.00;96208.45;111578;1249;25171;-86
2024/03/13 00:32:31;;;;;;;;;;;;;;;5.67;100.00;96208.78;111590;1249;22607;-86
2024/03/13 00:34:57;;;;;;;;;;;;;;;5.66;100.00;96211.39;111487;1245;22481;-85
2024/03/13 00:37:23;;;;;;;;;;;;;;;5.68;100.00;96208.77;111551;1249;23844;-85
2024/03/13 00:39:48;;;;;;;;;;;;;;;5.70;100.00;96210.02;111541;1249;22802;-85
2024/03/13 00:42:14;;;;;;;;;;;;;;;5.71;100.00;96213.20;111527;1249;23797;-85
2024/03/13 00:44:40;;;;;;;;;;;;;;;5.69;100.00;96211.10;111558;1249;22512;-86
2024/03/13 00:47:06;;;;;;;;;;;;;;;5.68;100.00;96214.48;111577;1249;22470;-85
2024/03/13 00:49:33;;;;;;;;;;;;;;;5.65;100.00;96214.26;111496;1249;22476;-85
2024/03/13 00:51:59;;;;;;;;;;;;;;;5.63;100.00;96212.71;111545;1249;22463;-88
2024/03/13 00:54:27;;;;;;;;;;;;;;;5.63;100.00;96218.92;111533;1249;25248;-87
2024/03/13 00:56:55;;;;;;;;;;;;;;;5.63;100.00;96214.96;111550;1249;22476;-88
2024/03/13 00:59:23;;;;;;;;;;;;;;;5.61;100.00;96218.30;111516;1249;24344;-88
2024/03/13 01:01:49;;;;;;;;;;;;;;;5.59;100.00;96216.30;111575;1249;22517;-87
2024/03/13 01:04:16;;;;;;;;;;;;;;;5.58;100.00;96214.83;111517;1249;22508;-88
2024/03/13 01:06:42;;;;;;;;;;;;;;;5.59;100.00;96215.30;111532;1249;22525;-88
2024/03/13 01:09:11;;;;;;;;;;;;;;;5.57;100.00;96215.78;111523;1248;22516;-87
2024/03/13 01:11:36;;;;;;;;;;;;;;;5.55;100.00;96213.81;111614;1249;22449;-88
2024/03/13 01:14:05;;;;;;;;;;;;;;;5.54;100.00;96221.63;111515;1248;22512;-88
2024/03/13 01:16:31;;;;;;;;;;;;;;;5.53;100.00;96224.92;111569;1249;22615;-88
2024/03/13 01:18:57;;;;;;;;;;;;;;;5.54;100.00;96220.87;111590;1249;23528;-87
2024/03/13 01:21:23;;;;;;;;;;;;;;;5.55;100.00;96225.27;111524;1249;22520;-88
2024/03/13 01:23:49;;;;;;;;;;;;;;;5.55;100.00;96226.64;111727;1249;22477;-87
2024/03/13 01:26:14;;;;;;;;;;;;;;;5.54;100.00;96228.95;111621;1249;22474;-87
2024/03/13 01:28:42;;;;;;;;;;;;;;;5.52;100.00;96232.43;111599;1249;22492;-88
2024/03/13 01:31:08;;;;;;;;;;;;;;;5.50;100.00;96228.00;111796;1241;25295;-87
2024/03/13 01:33:34;;;;;;;;;;;;;;;5.48;100.00;96224.61;111562;1249;22491;-85
2024/03/13 01:36:00;;;;;;;;;;;;;;;5.48;100.00;96228.41;111538;1249;22488;-85
2024/03/13 01:38:26;;;;;;;;;;;;;;;5.49;100.00;96228.45;111725;1249;23284;-85
2024/03/13 01:57:32;;;;;;;;;;;;;;;5.47;100.00;96237.60;111621;1247;22486;-89
2024/03/13 02:02:45;;;;;;;;;;;;;;;5.50;100.00;96239.28;111612;1249;25352;-89
2024/03/13 02:05:11;;;;;;;;;;;;;;;5.54;100.00;96242.04;111578;1249;22513;-88
2024/03/13 02:07:37;;;;;;;;;;;;;;;5.54;100.00;96241.68;111569;1249;22594;-88
2024/03/13 02:10:04;;;;;;;;;;;;;;;5.52;100.00;96243.09;111530;1249;24152;-87
2024/03/13 02:12:30;;;;;;;;;;;;;;;5.52;100.00;96242.73;111550;1249;22488;-88
2024/03/13 02:14:55;;;;;;;;;;;;;;;5.52;100.00;96241.06;111538;1249;22502;-89
2024/03/13 02:17:21;;;;;;;;;;;;;;;5.53;100.00;96237.30;111795;1249;22882;-87
2024/03/13 02:19:47;;;;;;;;;;;;;;;5.53;100.00;96238.67;111570;1245;23783;-88
2024/03/13 02:22:13;;;;;;;;;;;;;;;5.53;100.00;96237.66;111555;1249;22885;-87
2024/03/13 02:24:39;;;;;;;;;;;;;;;5.53;100.00;96233.73;111576;1249;24244;-88
2024/03/13 02:27:09;;;;;;;;;;;;;;;5.55;100.00;96236.42;111552;1249;22479;-87
2024/03/13 02:29:34;;;;;;;;;;;;;;;5.57;100.00;96238.76;111554;1249;22550;-87
2024/03/13 02:32:00;;;;;;;;;;;;;;;5.59;100.00;96241.34;111539;1249;22519;-87
2024/03/13 02:34:26;;;;;;;;;;;;;;;5.58;100.00;96239.34;111531;1249;23028;-88
2024/03/13 02:36:54;;;;;;;;;;;;;;;5.59;100.00;96239.82;111589;1249;22477;-87
2024/03/13 02:39:20;;;;;;;;;;;;;;;5.58;100.00;96240.98;111588;1249;22515;-88
2024/03/13 02:41:47;;;;;;;;;;;;;;;5.57;100.00;96241.23;111542;1249;22565;-87
2024/03/13 02:44:12;;;;;;;;;;;;;;;5.56;100.00;96242.01;111744;1249;22473;-87
2024/03/13 02:46:38;;;;;;;;;;;;;;;5.56;100.00;96243.91;111548;1245;22571;-88
2024/03/13 02:49:04;;;;;;;;;;;;;;;5.56;100.00;96239.55;111601;1249;22423;-88
2024/03/13 02:51:30;;;;;;;;;;;;;;;5.57;100.00;96242.62;111561;1249;22524;-88
2024/03/13 02:53:56;;;;;;;;;;;;;;;5.57;100.00;96242.11;111569;1244;22500;-88
2024/03/13 02:56:22;;;;;;;;;;;;;;;5.57;100.00;96243.23;111583;1249;22509;-88
2024/03/13 02:58:48;;;;;;;;;;;;;;;5.57;100.00;96238.79;111578;1249;23802;-88
2024/03/13 03:01:14;;;;;;;;;;;;;;;5.60;100.00;96237.66;111563;1249;22524;-88
2024/03/13 03:03:41;;;;;;;;;;;;;;;5.62;100.00;96240.73;111567;1249;22528;-89
2024/03/13 03:06:06;;;;;;;;;;;;;;;5.62;100.00;96243.66;111580;1249;24688;-88
2024/03/13 03:08:33;;;;;;;;;;;;;;;5.62;100.00;96240.13;111544;1248;22435;-88
2024/03/13 03:11:03;;;;;;;;;;;;;;;5.63;100.00;96242.48;111759;1249;25388;-88
2024/03/13 03:13:29;;;;;;;;;;;;;;;5.63;100.00;96239.77;111772;1249;22546;-89
2024/03/13 03:15:55;;;;;;;;;;;;;;;5.62;100.00;96240.99;111556;1240;22469;-88
2024/03/13 03:18:22;;;;;;;;;;;;;;;5.64;100.00;96240.70;111532;1249;22508;-88
2024/03/13 03:20:48;;;;;;;;;;;;;;;5.65;100.00;96241.73;111519;1249;22514;-89
2024/03/13 03:23:14;;;;;;;;;;;;;;;5.64;100.00;96242.00;111553;1249;23698;-88
2024/03/13 03:25:40;;;;;;;;;;;;;;;5.64;100.00;96240.70;111580;1249;23632;-88
2024/03/13 03:28:06;;;;;;;;;;;;;;;5.62;100.00;96244.18;111504;1249;22449;-88
2024/03/13 03:30:32;;;;;;;;;;;;;;;5.61;100.00;96245.60;111779;1249;22594;-89
2024/03/13 03:33:01;;;;;;;;;;;;;;;5.61;100.00;96246.66;111788;1249;22447;-88
2024/03/13 03:35:27;;;;;;;;;;;;;;;5.61;100.00;96248.40;111525;1249;22475;-88
2024/03/13 03:37:53;;;;;;;;;;;;;;;5.59;100.00;96246.30;111591;1249;22519;-88
2024/03/13 03:40:19;;;;;;;;;;;;;;;5.58;100.00;96251.04;111580;1249;22557;-88
2024/03/13 03:42:46;;;;;;;;;;;;;;;5.57;100.00;96251.16;111556;1249;22508;-88
2024/03/13 03:45:12;;;;;;;;;;;;;;;5.58;100.00;96250.23;111508;1249;24245;-88
2024/03/13 03:47:39;;;;;;;;;;;;;;;5.60;100.00;96249.85;111517;1249;22533;-88
2024/03/13 03:50:07;;;;;;;;;;;;;;;5.60;100.00;96251.52;111567;1249;22505;-87
2024/03/13 03:52:33;;;;;;;;;;;;;;;5.61;100.00;96252.88;111555;1249;22630;-88
2024/03/13 03:54:59;;;;;;;;;;;;;;;5.61;100.00;96253.75;111365;1249;23092;-89
2024/03/13 03:57:25;;;;;;;;;;;;;;;5.60;100.00;96257.61;111582;1248;24182;-88
2024/03/13 03:59:50;;;;;;;;;;;;;;;5.58;100.00;96257.44;111553;1249;22607;-88
2024/03/13 04:02:17;;;;;;;;;;;;;;;5.59;100.00;96255.80;111577;1249;22409;-88
2024/03/13 04:04:43;;;;;;;;;;;;;;;5.61;100.00;96254.71;111590;1249;25213;-88
2024/03/13 04:07:11;;;;;;;;;;;;;;;5.61;100.00;96256.94;111547;1249;23155;-89
2024/03/13 04:09:37;;;;;;;;;;;;;;;5.61;100.00;96257.26;111497;1249;22487;-85
2024/03/13 04:12:02;;;;;;;;;;;;;;;5.61;100.00;96254.94;111531;1249;22946;-85
2024/03/13 04:14:28;;;;;;;;;;;;;;;5.60;100.00;96259.61;111575;1247;22481;-86
2024/03/13 04:16:54;;;;;;;;;;;;;;;5.59;100.00;96261.12;111745;1249;22421;-86
2024/03/13 04:19:21;;;;;;;;;;;;;;;5.59;100.00;96265.76;111700;1249;23249;-86
2024/03/13 04:21:47;;;;;;;;;;;;;;;5.60;100.00;96264.63;112929;1249;23191;-86
2024/03/13 04:24:13;;;;;;;;;;;;;;;5.62;100.00;96267.48;112924;1249;22338;-86
2024/03/13 04:26:41;;;;;;;;;;;;;;;5.65;100.00;96268.19;112395;1249;22533;-86
2024/03/13 04:29:07;;;;;;;;;;;;;;;5.67;100.00;96271.63;111506;1249;24183;-86
2024/03/13 04:31:37;;;;;;;;;;;;;;;5.69;100.00;96272.80;111716;1243;22479;-85
2024/03/13 04:34:04;;;;;;;;;;;;;;;5.69;100.00;96270.75;111517;1249;25173;-86
2024/03/13 04:36:33;;;;;;;;;;;;;;;5.68;100.00;96271.71;111729;1249;22526;-85
2024/03/13 04:38:59;;;;;;;;;;;;;;;5.68;100.00;96274.48;111531;1248;22508;-85
2024/03/13 04:41:25;;;;;;;;;;;;;;;5.67;100.00;96272.33;111543;1249;25251;-86
2024/03/13 04:43:52;;;;;;;;;;;;;;;5.68;100.00;96274.30;111701;1249;22516;-86
2024/03/13 04:46:18;;;;;;;;;;;;;;;5.69;100.00;96274.55;111533;1249;24282;-86
2024/03/13 04:48:45;;;;;;;;;;;;;;;5.68;100.00;96272.34;111497;1249;22485;-86
2024/03/13 04:51:11;;;;;;;;;;;;;;;5.69;100.00;96271.75;111552;1249;22480;-86
2024/03/13 04:53:37;;;;;;;;;;;;;;;5.69;100.00;96268.30;111475;1249;22576;-85
2024/03/13 04:56:03;;;;;;;;;;;;;;;5.70;100.00;96276.71;111529;1249;23210;-86
2024/03/13 04:58:29;;;;;;;;;;;;;;;5.70;100.00;96280.42;111700;1249;22544;-86
2024/03/13 05:00:55;;;;;;;;;;;;;;;5.69;100.00;96286.73;111537;1249;22507;-86
2024/03/13 05:03:21;;;;;;;;;;;;;;;5.68;100.00;96286.15;111539;1248;22482;-86
2024/03/13 05:05:47;;;;;;;;;;;;;;;5.69;100.00;96287.06;111563;1249;22589;-86
2024/03/13 05:08:15;;;;;;;;;;;;;;;5.71;100.00;96289.99;111516;1247;23117;-86
2024/03/13 05:10:41;;;;;;;;;;;;;;;5.70;100.00;96290.89;111729;1249;22516;-86
2024/03/13 05:13:07;;;;;;;;;;;;;;;5.72;100.00;96291.39;111504;1249;22488;-85
2024/03/13 05:15:32;;;;;;;;;;;;;;;5.73;100.00;96292.33;111546;1246;22530;-86
2024/03/13 05:17:58;;;;;;;;;;;;;;;5.74;100.00;96290.71;111465;1248;22531;-86
2024/03/13 05:20:24;;;;;;;;;;;;;;;5.73;100.00;96293.20;111495;1249;22480;-86
2024/03/13 05:22:51;;;;;;;;;;;;;;;5.73;100.00;96296.09;111492;1249;22520;-85
2024/03/13 05:25:22;;;;;;;;;;;;;;;5.74;100.00;96303.13;111592;1249;22571;-86
2024/03/13 05:27:49;;;;;;;;;;;;;;;5.76;100.00;96297.77;111567;1247;22546;-86
2024/03/13 05:30:16;;;;;;;;;;;;;;;5.76;100.00;96300.48;111577;1249;23251;-86
2024/03/13 05:32:42;;;;;;;;;;;;;;;5.75;100.00;96306.22;111475;1249;23104;-86
2024/03/13 05:35:08;;;;;;;;;;;;;;;5.75;100.00;96308.80;111502;1249;23795;-86
2024/03/13 05:37:34;;;;;;;;;;;;;;;5.72;100.00;96309.59;111555;1249;22502;-85
2024/03/13 05:40:03;;;;;;;;;;;;;;;5.70;100.00;96313.23;111434;1245;22487;-86
2024/03/13 05:42:29;;;;;;;;;;;;;;;5.68;100.00;96312.96;111533;1249;22413;-86
2024/03/13 05:44:54;;;;;;;;;;;;;;;5.68;100.00;96316.24;111589;1245;22524;-86
2024/03/13 05:47:20;;;;;;;;;;;;;;;5.68;100.00;96317.92;111596;1249;22573;-86
2024/03/13 05:49:46;;;;;;;;;;;;;;;5.68;100.00;96319.95;111714;1249;22422;-86
2024/03/13 05:52:12;;;;;;;;;;;;;;;5.68;100.00;96318.25;111545;1247;22516;-86
2024/03/13 05:54:37;;;;;;;;;;;;;;;5.70;100.00;96319.58;111467;1249;22471;-85
2024/03/13 05:57:04;;;;;;;;;;;;;;;5.75;100.00;96322.42;111720;1249;23119;-86
2024/03/13 05:59:30;;;;;;;;;;;;;;;5.76;100.00;96321.23;111715;1243;22592;-86
2024/03/13 06:01:56;;;;;;;;;;;;;;;5.77;100.00;96320.98;111695;1249;22564;-86
2024/03/13 06:04:22;;;;;;;;;;;;;;;5.78;100.00;96323.85;111541;1249;22927;-87
2024/03/13 06:06:52;;;;;;;;;;;;;;;5.77;100.00;96324.14;111543;1249;22515;-86
2024/03/13 06:09:17;;;;;;;;;;;;;;;5.76;100.00;96325.23;111569;1249;22482;-86
2024/03/13 06:11:43;;;;;;;;;;;;;;;5.76;100.00;96329.04;111568;1249;25203;-86
2024/03/13 06:14:09;;;;;;;;;;;;;;;5.75;100.00;96328.59;111639;1249;22453;-89
2024/03/13 06:16:35;;;;;;;;;;;;;;;5.74;100.00;96328.55;111779;1249;22490;-89
2024/03/13 06:19:01;;;;;;;;;;;;;;;5.74;100.00;96332.29;111741;1249;23168;-88
2024/03/13 06:21:27;;;;;;;;;;;;;;;5.74;100.00;96331.94;111607;1249;24156;-89
2024/03/13 06:23:58;;;;;;;;;;;;;;;5.75;100.00;96334.09;111531;1249;22486;-89
2024/03/13 06:26:24;;;;;;;;;;;;;;;5.78;100.00;96340.33;111562;1249;22507;-90
2024/03/13 06:31:41;;;;;;;;;;;;;;;5.76;100.00;96341.91;111603;1248;22494;-89
2024/03/13 06:34:08;;;;;;;;;;;;;;;5.76;100.00;96345.38;111586;1249;22518;-89
2024/03/13 06:36:36;;;;;;;;;;;;;;;5.76;100.00;96345.32;111635;1249;22499;-89
2024/03/13 06:39:03;;;;;;;;;;;;;;;5.76;100.00;96346.58;111585;1249;23147;-89
2024/03/13 06:41:29;;;;;;;;;;;;;;;5.76;100.00;96350.98;111641;1249;22789;-89
2024/03/13 06:43:55;;;;;;;;;;;;;;;5.76;100.00;96351.34;111522;1249;22484;-89
2024/03/13 06:46:21;;;;;;;;;;;;;;;5.76;100.00;96357.05;111748;1249;22495;-89
2024/03/13 06:48:46;;;;;;;;;;;;;;;5.75;100.00;96354.52;111713;1246;24727;-89
2024/03/13 06:51:13;;;;;;;;;;;;;;;5.75;100.00;96354.56;111768;1249;25352;-88
2024/03/13 06:53:39;;;;;;;;;;;;;;;5.76;100.00;96356.88;111624;1249;22412;-89
2024/03/13 06:56:05;;;;;;;;;;;;;;;5.76;100.00;96355.46;111486;1249;22509;-89
2024/03/13 06:58:31;;;;;;;;;;;;;;;5.78;100.00;96355.60;111634;1249;22601;-90
2024/03/13 07:00:57;;;;;;;;;;;;;;;5.78;100.00;96355.29;111654;1247;22427;-89
2024/03/13 07:03:24;;;;;;;;;;;;;;;5.77;100.00;96360.85;111616;1249;22514;-88
2024/03/13 07:05:53;;;;;;;;;;;;;;;5.79;100.00;96362.09;111604;1249;22515;-89
2024/03/13 07:08:18;;;;;;;;;;;;;;;5.80;100.00;96364.41;111610;1249;22524;-88
2024/03/13 07:10:44;;;;;;;;;;;;;;;5.80;100.00;96364.09;111511;1249;22513;-89
2024/03/13 07:13:11;;;;;;;;;;;;;;;5.80;100.00;96363.19;112860;1249;22978;-89
2024/03/13 07:15:42;;;;;;;;;;;;;;;5.80;100.00;96362.96;112751;1249;22428;-88
2024/03/13 07:18:08;;;;;;;;;;;;;;;5.81;100.00;96363.90;111582;1249;22521;-89
2024/03/13 07:20:33;;;;;;;;;;;;;;;5.82;100.00;96361.55;111529;1249;22497;-89
2024/03/13 07:23:00;;;;;;;;;;;;;;;5.83;100.00;96365.23;111586;1246;22676;-89
2024/03/13 07:25:26;;;;;;;;;;;;;;;5.84;100.00;96362.27;111571;1249;22487;-89
2024/03/13 07:27:51;;;;;;;;;;;;;;;5.83;100.00;96364.88;111514;1249;24289;-89
2024/03/13 07:30:18;;;;;;;;;;;;;;;5.82;100.00;96364.45;111610;1249;23230;-89
2024/03/13 07:32:44;;;;;;;;;;;;;;;5.81;100.00;96367.00;111619;1249;22459;-89
2024/03/13 07:35:12;;;;;;;;;;;;;;;5.82;100.00;96366.02;111611;1247;22422;-89
2024/03/13 07:37:38;;;;;;;;;;;;;;;5.84;100.00;96366.01;111499;1245;22475;-89
2024/03/13 07:40:05;;;;;;;;;;;;;;;5.84;100.00;96368.29;111632;1249;22472;-89
2024/03/13 07:42:31;;;;;;;;;;;;;;;5.84;100.00;96369.75;111533;1249;22417;-89
2024/03/13 07:44:57;;;;;;;;;;;;;;;5.82;100.00;96369.48;112952;1249;22569;-90
2024/03/13 07:47:23;;;;;;;;;;;;;;;5.82;100.00;96370.21;112944;1249;22346;-89
2024/03/13 07:49:49;;;;;;;;;;;;;;;5.82;100.00;96370.51;113049;1249;23051;-88
2024/03/13 07:52:15;;;;;;;;;;;;;;;5.82;100.00;96377.56;112860;1249;23002;-88
2024/03/13 07:54:41;;;;;;;;;;;;;;;5.83;100.00;96373.86;112772;1249;23796;-87
2024/03/13 07:57:08;;;;;;;;;;;;;;;5.83;100.00;96374.36;111621;1249;22530;-89
2024/03/13 07:59:34;;;;;;;;;;;;;;;5.85;100.00;96374.84;111672;1248;22469;-87
2024/03/13 08:02:00;;;;;;;;;;;;;;;5.86;100.00;96372.00;111627;1249;23143;-89
2024/03/13 08:04:26;;;;;;;;;;;;;;;5.87;100.00;96367.60;111578;1249;22565;-89
2024/03/13 08:06:55;;;;;;;;;;;;;;;5.89;100.00;96366.25;111590;1249;23799;-85
2024/03/13 08:09:27;;;;;;;;;;;;;;;5.90;100.00;96370.63;111566;1248;25386;-85
2024/03/13 08:11:54;;;;;;;;;;;;;;;5.92;100.00;96367.45;111704;1249;25260;-86
2024/03/13 08:14:21;;;;;;;;;;;;;;;5.94;100.00;96371.88;111708;1249;22474;-86
2024/03/13 08:16:47;;;;;;;;;;;;;;;5.97;100.00;96371.79;111698;1249;25222;-86
2024/03/13 08:19:12;;;;;;;;;;;;;;;5.98;100.00;96376.47;111550;1247;22519;-86
2024/03/13 08:21:38;;;;;;;;;;;;;;;5.97;100.00;96378.46;111624;1249;22531;-85
2024/03/13 08:24:04;;;;;;;;;;;;;;;5.97;100.00;96378.36;111695;1246;22510;-86
2024/03/13 08:26:29;;;;;;;;;;;;;;;5.97;100.00;96381.07;111446;1249;22510;-86
2024/03/13 08:28:56;;;;;;;;;;;;;;;5.96;100.00;96382.65;111720;1249;22533;-86
2024/03/13 08:31:22;;;;;;;;;;;;;;;5.97;100.00;96383.10;111576;1249;24334;-86
2024/03/13 08:33:48;;;;;;;;;;;;;;;5.97;100.00;96388.81;111465;1247;22528;-86
2024/03/13 08:36:15;;;;;;;;;;;;;;;5.96;100.00;96389.70;111675;1246;22475;-86
2024/03/13 08:38:41;;;;;;;;;;;;;;;5.98;100.00;96394.04;111434;1249;23223;-86
2024/03/13 08:41:07;;;;;;;;;;;;;;;5.97;100.00;96393.42;111565;1249;22580;-86
2024/03/13 08:43:32;;;;;;;;;;;;;;;5.96;100.00;96393.77;111728;1246;22482;-86
2024/03/13 08:45:58;;;;;;;;;;;;;;;5.94;100.00;96393.59;111583;1249;22512;-85
2024/03/13 08:48:27;;;;;;;;;;;;;;;5.96;100.00;96393.35;111672;1249;22488;-86
2024/03/13 08:50:54;;;;;;;;;;;;;;;5.97;100.00;96398.64;111692;1249;22537;-86
2024/03/13 08:53:20;;;;;;;;;;;;;;;5.97;100.00;96404.45;111682;1249;22539;-86
2024/03/13 08:55:46;;;;;;;;;;;;;;;5.99;100.00;96408.75;111555;1249;22485;-86
2024/03/13 08:58:12;;;;;;;;;;;;;;;6.01;100.00;96409.74;111675;1249;25381;-85
2024/03/13 09:00:38;;;;;;;;;;;;;;;5.98;100.00;96410.39;111581;1249;22591;-86
2024/03/13 09:03:04;;;;;;;;;;;;;;;5.97;100.00;96410.63;111573;1248;22617;-86
2024/03/13 09:05:32;;;;;;;;;;;;;;;5.97;100.00;96411.86;111474;1249;22520;-86
2024/03/13 09:07:58;;;;;;;;;;;;;;;5.98;100.00;96412.61;111608;1249;22643;-86
2024/03/13 09:10:23;;;;;;;;;;;;;;;5.97;100.00;96411.98;111674;1249;22481;-86
2024/03/13 09:12:50;;;;;;;;;;;;;;;5.96;100.00;96415.08;111450;1249;22479;-86
2024/03/13 09:15:16;;;;;;;;;;;;;;;5.95;100.00;96414.95;111680;1249;22491;-86
2024/03/13 09:17:42;;;;;;;;;;;;;;;5.94;100.00;96415.61;111696;1246;24192;-86
2024/03/13 09:20:08;;;;;;;;;;;;;;;5.94;100.00;96418.20;111566;1249;22560;-86
2024/03/13 09:22:34;;;;;;;;;;;;;;;5.96;100.00;96419.72;111266;1249;282200;-86
2024/03/13 09:25:00;;;;;;;;;;;;;;;5.96;100.00;96422.95;111647;1249;22876;-86
2024/03/13 09:27:26;;;;;;;;;;;;;;;5.96;100.00;96425.66;111406;1249;22485;-86
2024/03/13 09:29:52;;;;;;;;;;;;;;;5.97;100.00;96427.31;111608;1249;24211;-85
2024/03/13 09:32:21;;;;;;;;;;;;;;;6.00;100.00;96431.15;111608;1249;23863;-86
2024/03/13 09:34:47;;;;;;;;;;;;;;;6.03;100.00;96433.84;111658;1249;22625;-86
2024/03/13 09:37:15;;;;;;;;;;;;;;;6.06;100.00;96433.86;111451;1249;25218;-86
2024/03/13 09:39:41;;;;;;;;;;;;;;;6.10;100.00;96437.39;111438;1249;23145;-86
2024/03/13 09:42:09;;;;;;;;;;;;;;;6.12;100.00;96439.75;111586;1249;23077;-86
2024/03/13 09:44:35;;;;;;;;;;;;;;;6.15;100.00;96439.83;111672;1249;23741;-86
2024/03/13 09:47:00;;;;;;;;;;;;;;;6.19;100.00;96440.65;111469;1248;22498;-86
2024/03/13 09:49:26;;;;;;;;;;;;;;;6.22;100.00;96444.42;111587;1249;22802;-86
2024/03/13 09:51:52;;;;;;;;;;;;;;;6.23;100.00;96447.34;111447;1249;22475;-86
2024/03/13 09:54:18;;;;;;;;;;;;;;;6.19;100.00;96449.76;111664;1249;23182;-86
2024/03/13 09:56:45;;;;;;;;;;;;;;;6.19;100.00;96451.84;111673;1249;22699;-86
2024/03/13 09:59:10;;;;;;;;;;;;;;;6.18;100.00;96452.08;111609;1248;22506;-86
2024/03/13 10:01:45;;;;;;;;;;;;;;;6.20;100.00;96453.48;111596;1245;22510;-86
2024/03/13 10:04:10;;;;;;;;;;;;;;;6.18;100.00;96455.17;111601;1249;23705;-86
2024/03/13 10:06:38;;;;;;;;;;;;;;;6.15;100.00;96457.84;111426;1249;22687;-86
2024/03/13 10:09:07;;;;;;;;;;;;;;;6.12;100.00;96459.25;111379;1249;22469;-86
2024/03/13 10:11:32;;;;;;;;;;;;;;;6.11;100.00;96458.29;111604;1249;22515;-86
2024/03/13 10:13:59;;;;;;;;;;;;;;;6.12;100.00;96459.90;111465;1249;22560;-86
2024/03/13 10:16:24;;;;;;;;;;;;;;;6.12;100.00;96461.83;111651;1249;25221;-86
2024/03/13 10:18:51;;;;;;;;;;;;;;;6.13;100.00;96460.84;111605;1249;22551;-86
2024/03/13 10:21:20;;;;;;;;;;;;;;;6.16;100.00;96464.85;111713;1249;22491;-87
2024/03/13 10:23:46;;;;;;;;;;;;;;;6.15;100.00;96461.01;111643;1249;22458;-88
2024/03/13 10:26:12;;;;;;;;;;;;;;;6.17;100.00;96460.79;111642;1248;22538;-88
2024/03/13 10:28:38;;;;;;;;;;;;;;;6.18;100.00;96464.81;111635;1249;24548;-88
2024/03/13 10:31:04;;;;;;;;;;;;;;;6.19;100.00;96464.75;111488;1249;22480;-88
2024/03/13 10:33:30;;;;;;;;;;;;;;;6.20;100.00;96467.02;111467;1249;22576;-88
2024/03/13 10:35:56;;;;;;;;;;;;;;;6.18;100.00;96470.17;111635;1248;22452;-88
2024/03/13 10:38:23;;;;;;;;;;;;;;;6.18;100.00;96473.02;111695;1249;25364;-88
2024/03/13 10:40:49;;;;;;;;;;;;;;;6.21;100.00;96473.27;111465;1249;22481;-89
2024/03/13 10:43:15;;;;;;;;;;;;;;;6.22;100.00;96470.77;111494;1249;22479;-89
2024/03/13 10:45:42;;;;;;;;;;;;;;;6.23;100.00;96471.59;111671;1249;22447;-88
2024/03/13 10:48:10;;;;;;;;;;;;;;;6.22;100.00;96470.58;112822;1249;22347;-89
2024/03/13 10:50:36;;;;;;;;;;;;;;;6.23;100.00;96475.11;112835;1248;22334;-89
2024/03/13 10:53:02;;;;;;;;;;;;;;;6.25;100.00;96470.95;112963;1249;22365;-87
2024/03/13 10:55:28;;;;;;;;;;;;;;;6.27;100.00;96468.89;112848;1249;22444;-87
2024/03/13 10:57:54;;;;;;;;;;;;;;;6.30;100.00;96470.16;112812;1249;22437;-87
2024/03/13 11:00:22;;;;;;;;;;;;;;;6.35;100.00;96471.53;112960;1249;22372;-87
2024/03/13 11:02:52;;;;;;;;;;;;;;;6.37;100.00;96467.90;112780;1249;22564;-87
2024/03/13 11:05:17;;;;;;;;;;;;;;;6.39;100.00;96468.78;111609;1249;24274;-88
2024/03/13 11:07:45;;;;;;;;;;;;;;;6.37;100.00;96470.09;111620;1249;22519;-89
2024/03/13 11:10:13;;;;;;;;;;;;;;;6.38;100.00;96467.67;111660;1249;23068;-88
2024/03/13 11:12:40;;;;;;;;;;;;;;;6.38;100.00;96465.70;111695;1249;22516;-89
2024/03/13 11:15:06;;;;;;;;;;;;;;;6.38;100.00;96466.80;111740;1249;22548;-88
2024/03/13 11:17:31;;;;;;;;;;;;;;;6.39;100.00;96462.88;111666;1249;22578;-89
2024/03/13 11:20:01;;;;;;;;;;;;;;;6.39;100.00;96464.31;111634;1249;22528;-88
2024/03/13 11:22:28;;;;;;;;;;;;;;;6.36;100.00;96462.21;111710;1249;22446;-88
2024/03/13 11:24:55;;;;;;;;;;;;;;;6.34;100.00;96463.55;111465;1249;22484;-88
2024/03/13 11:27:20;;;;;;;;;;;;;;;6.32;100.00;96463.91;112828;1249;22435;-88
2024/03/13 11:29:48;;;;;;;;;;;;;;;6.29;100.00;96460.30;112843;1249;22347;-88
2024/03/13 11:32:14;;;;;;;;;;;;;;;6.31;100.00;96462.27;112850;1249;22365;-88
2024/03/13 11:34:43;;;;;;;;;;;;;;;6.33;100.00;96460.53;112838;1249;22337;-89
2024/03/13 11:37:11;;;;;;;;;;;;;;;6.36;100.00;96459.54;112978;1249;22343;-86
2024/03/13 11:39:39;;;;;;;;;;;;;;;6.40;100.00;96459.23;112997;1247;22330;-86
2024/03/13 11:42:06;;;;;;;;;;;;;;;6.41;100.00;96456.10;111728;1249;22472;-88
2024/03/13 11:44:32;;;;;;;;;;;;;;;6.40;100.00;96456.08;111703;1249;22522;-88
2024/03/13 11:46:58;;;;;;;;;;;;;;;6.41;100.00;96452.91;111636;1249;22521;-89
2024/03/13 11:49:25;;;;;;;;;;;;;;;6.43;100.00;96449.55;111663;1249;22691;-89
2024/03/13 11:52:03;;;;;;;;;;;;;;;6.46;100.00;96447.49;111697;1249;22900;-89
2024/03/13 11:54:32;;;;;;;;;;;;;;;6.50;100.00;96446.42;111657;1249;22957;-89
2024/03/13 11:57:17;;;;;;;;;;;;;;;6.57;100.00;96448.27;111471;1249;25360;-89
2024/03/13 11:59:44;;;;;;;;;;;;;;;6.64;100.00;96442.93;111659;1246;25221;-89
2024/03/13 12:02:31;;;;;;;;;;;;;;;6.68;100.00;96448.12;111684;1249;24221;-89
2024/03/13 12:05:01;;;;;;;;;;;;;;;6.72;100.00;96448.43;111728;1249;22630;-88
2024/03/13 12:07:27;;;;;;;;;;;;;;;6.72;100.00;96448.66;111616;1249;22474;-89
2024/03/13 12:09:52;;;;;;;;;;;;;;;6.73;100.00;96448.44;111676;1249;25378;-89
2024/03/13 12:12:18;;;;;;;;;;;;;;;6.74;100.00;96453.02;111485;1249;23205;-89
2024/03/13 12:14:44;;;;;;;;;;;;;;;6.73;100.00;96450.11;111480;1249;25338;-88
2024/03/13 12:17:10;;;;;;;;;;;;;;;6.73;100.00;96455.66;111483;1249;22497;-89
2024/03/13 12:19:36;;;;;;;;;;;;;;;6.75;100.00;96456.98;111480;1249;23798;-89
2024/03/13 12:22:05;;;;;;;;;;;;;;;6.76;100.00;96454.96;111675;1248;22486;-89
2024/03/13 12:24:33;;;;;;;;;;;;;;;6.79;100.00;96453.09;111635;1249;22535;-88
2024/03/13 12:26:59;;;;;;;;;;;;;;;6.83;100.00;96453.43;111502;1249;22702;-88
2024/03/13 12:29:27;;;;;;;;;;;;;;;6.84;100.00;96455.36;111648;1249;23306;-88
2024/03/13 12:31:54;;;;;;;;;;;;;;;6.87;100.00;96456.84;111498;1249;22477;-88
2024/03/13 12:34:19;;;;;;;;;;;;;;;6.90;100.00;96454.76;111684;1249;22526;-89
2024/03/13 12:36:46;;;;;;;;;;;;;;;6.93;100.00;96451.83;111684;1249;22436;-88
2024/03/13 12:39:13;;;;;;;;;;;;;;;6.99;100.00;96453.19;111681;1246;25338;-89
2024/03/13 12:41:39;;;;;;;;;;;;;;;7.02;100.00;96452.73;111625;1249;24179;-89
2024/03/13 12:44:05;;;;;;;;;;;;;;;7.08;100.00;96455.35;111515;1249;22462;-89
2024/03/13 12:46:31;;;;;;;;;;;;;;;7.06;100.00;96451.19;111703;1249;22484;-89
2024/03/13 12:48:57;;;;;;;;;;;;;;;7.05;100.00;96452.86;111656;1249;23701;-89
2024/03/13 12:51:22;;;;;;;;;;;;;;;7.12;100.00;96455.77;111500;1241;22520;-89
2024/03/13 12:53:48;;;;;;;;;;;;;;;7.18;100.00;96454.15;111662;1249;25363;-89